Ana Sayfa
METAR-TAF:

METAR-TAF

Havaalanları :

Francis S. Gabreski Airport

Westhampton Beach, New York, Amerika Birleşik Devletleri

Enlem: 40-51-03N, Boylam: 072-37-14W, yükseklik: 20 m

Güncel hava durumu gözlemi

Rapor saat 02:53 UTC de 26 dakika önce yapıldı.
Sakin rüzgar
Sıcaklık 5°C
Nem 87%
Basınç 1006 hPa
Görüş mesafesi: 16.1 km
1700 ft yükseklikte çok bulutlu

METAR: KFOK 190253Z 00000KT 10SM OVC017 05/03 A2970 RMK AO2 SLP057 T00500028 55001

Saat: 22:19 (03:19 UTC)


TAF: eksik

4.000'den fazla havaalanı için hava durumu gözlemleri ve tahminleri (METAR ve TAF raporları).

Kullanılabilir istasyonlar harita üzerinde sarı ve kırmızı noktalarla gösterilir.

İstasyonun adını görmek için fareyi noktanın üzerinde gezdirin.

Sonrasında hava gözlem ve tahminlerini görmek için tıklayın.

Haritayı değiştirmek için: yaklaştırmak için siyah artı işaretli yeşil düğmeye ve uzaklaştırmak için de eksi işaretli düğmeye hızla tıklayın; bitişik haritalar için yeşil okları kullanın.


METAR-TAF: